sensor_id;sensor_type;location;lat;lon;timestamp;P1;durP1;ratioP1;P2;durP2;ratioP2
2111;SDS011;1062;52.538;13.400;2022-12-24T00:00:58;11.70;;;6.63;;
2111;SDS011;1062;52.538;13.400;2022-12-24T00:03:23;10.17;;;6.97;;
2111;SDS011;1062;52.538;13.400;2022-12-24T00:05:49;12.47;;;7.10;;
2111;SDS011;1062;52.538;13.400;2022-12-24T00:08:15;12.67;;;8.03;;
2111;SDS011;1062;52.538;13.400;2022-12-24T00:10:40;13.13;;;7.07;;
2111;SDS011;1062;52.538;13.400;2022-12-24T00:13:06;9.40;;;7.10;;
2111;SDS011;1062;52.538;13.400;2022-12-24T00:15:31;11.27;;;7.50;;
2111;SDS011;1062;52.538;13.400;2022-12-24T00:17:57;11.83;;;6.87;;
2111;SDS011;1062;52.538;13.400;2022-12-24T00:20:23;11.00;;;7.87;;
2111;SDS011;1062;52.538;13.400;2022-12-24T00:22:48;11.90;;;7.03;;
2111;SDS011;1062;52.538;13.400;2022-12-24T00:25:14;15.17;;;8.00;;
2111;SDS011;1062;52.538;13.400;2022-12-24T00:27:40;12.93;;;8.20;;
2111;SDS011;1062;52.538;13.400;2022-12-24T00:30:06;11.33;;;7.37;;
2111;SDS011;1062;52.538;13.400;2022-12-24T00:32:32;8.60;;;6.23;;
2111;SDS011;1062;52.538;13.400;2022-12-24T00:34:57;10.07;;;6.80;;
2111;SDS011;1062;52.538;13.400;2022-12-24T00:37:23;12.17;;;7.47;;
2111;SDS011;1062;52.538;13.400;2022-12-24T00:39:48;10.60;;;5.70;;
2111;SDS011;1062;52.538;13.400;2022-12-24T00:42:14;12.53;;;7.97;;
2111;SDS011;1062;52.538;13.400;2022-12-24T00:44:39;10.20;;;6.20;;
2111;SDS011;1062;52.538;13.400;2022-12-24T00:47:05;10.83;;;7.33;;
2111;SDS011;1062;52.538;13.400;2022-12-24T00:49:31;9.63;;;6.90;;
2111;SDS011;1062;52.538;13.400;2022-12-24T00:51:56;10.73;;;6.43;;
2111;SDS011;1062;52.538;13.400;2022-12-24T00:54:22;9.50;;;6.57;;
2111;SDS011;1062;52.538;13.400;2022-12-24T00:56:47;7.37;;;5.83;;
2111;SDS011;1062;52.538;13.400;2022-12-24T00:59:13;11.60;;;6.27;;
2111;SDS011;1062;52.538;13.400;2022-12-24T01:01:38;11.37;;;6.73;;
2111;SDS011;1062;52.538;13.400;2022-12-24T01:04:04;8.47;;;6.33;;
2111;SDS011;1062;52.538;13.400;2022-12-24T01:06:48;12.03;;;6.30;;
2111;SDS011;1062;52.538;13.400;2022-12-24T01:09:14;12.50;;;6.20;;
2111;SDS011;1062;52.538;13.400;2022-12-24T01:11:39;10.07;;;7.07;;
2111;SDS011;1062;52.538;13.400;2022-12-24T01:14:05;10.13;;;7.30;;
2111;SDS011;1062;52.538;13.400;2022-12-24T01:16:31;8.43;;;5.43;;
2111;SDS011;1062;52.538;13.400;2022-12-24T01:18:56;12.50;;;6.37;;
2111;SDS011;1062;52.538;13.400;2022-12-24T01:21:22;12.63;;;6.60;;
2111;SDS011;1062;52.538;13.400;2022-12-24T01:23:47;8.77;;;5.93;;
2111;SDS011;1062;52.538;13.400;2022-12-24T01:26:13;13.70;;;7.07;;
2111;SDS011;1062;52.538;13.400;2022-12-24T01:28:39;14.80;;;8.77;;
2111;SDS011;1062;52.538;13.400;2022-12-24T01:31:23;13.43;;;7.87;;
2111;SDS011;1062;52.538;13.400;2022-12-24T01:33:48;13.97;;;8.70;;
2111;SDS011;1062;52.538;13.400;2022-12-24T01:36:14;10.40;;;6.47;;
2111;SDS011;1062;52.538;13.400;2022-12-24T01:38:40;15.30;;;8.50;;
2111;SDS011;1062;52.538;13.400;2022-12-24T01:41:06;15.23;;;8.60;;
2111;SDS011;1062;52.538;13.400;2022-12-24T01:43:54;8.30;;;6.00;;
2111;SDS011;1062;52.538;13.400;2022-12-24T01:46:24;15.47;;;8.87;;
2111;SDS011;1062;52.538;13.400;2022-12-24T01:48:54;13.43;;;8.03;;
2111;SDS011;1062;52.538;13.400;2022-12-24T01:54:03;15.50;;;7.83;;
2111;SDS011;1062;52.538;13.400;2022-12-24T01:56:46;15.23;;;7.90;;
2111;SDS011;1062;52.538;13.400;2022-12-24T01:59:16;12.20;;;7.80;;
2111;SDS011;1062;52.538;13.400;2022-12-24T02:01:44;16.70;;;8.37;;
2111;SDS011;1062;52.538;13.400;2022-12-24T02:04:15;18.37;;;8.47;;
2111;SDS011;1062;52.538;13.400;2022-12-24T02:06:47;16.00;;;8.27;;
2111;SDS011;1062;52.538;13.400;2022-12-24T02:09:13;14.57;;;9.20;;
2111;SDS011;1062;52.538;13.400;2022-12-24T02:11:39;12.33;;;7.60;;
2111;SDS011;1062;52.538;13.400;2022-12-24T02:14:09;12.77;;;7.50;;
2111;SDS011;1062;52.538;13.400;2022-12-24T02:22:13;12.33;;;7.70;;
2111;SDS011;1062;52.538;13.400;2022-12-24T02:25:20;12.53;;;8.17;;
2111;SDS011;1062;52.538;13.400;2022-12-24T02:28:13;14.73;;;8.40;;
2111;SDS011;1062;52.538;13.400;2022-12-24T02:31:02;11.77;;;8.20;;
2111;SDS011;1062;52.538;13.400;2022-12-24T02:33:50;15.80;;;9.20;;
2111;SDS011;1062;52.538;13.400;2022-12-24T02:36:27;12.00;;;8.37;;
2111;SDS011;1062;52.538;13.400;2022-12-24T02:41:30;12.47;;;8.77;;
2111;SDS011;1062;52.538;13.400;2022-12-24T02:44:21;14.97;;;9.53;;
2111;SDS011;1062;52.538;13.400;2022-12-24T02:46:50;15.90;;;9.93;;
2111;SDS011;1062;52.538;13.400;2022-12-24T02:49:16;14.03;;;8.43;;
2111;SDS011;1062;52.538;13.400;2022-12-24T02:51:42;14.40;;;9.60;;
2111;SDS011;1062;52.538;13.400;2022-12-24T02:54:08;14.87;;;8.13;;
2111;SDS011;1062;52.538;13.400;2022-12-24T02:59:22;13.97;;;9.13;;
2111;SDS011;1062;52.538;13.400;2022-12-24T03:12:39;15.50;;;8.73;;
2111;SDS011;1062;52.538;13.400;2022-12-24T03:15:12;18.03;;;9.93;;
2111;SDS011;1062;52.538;13.400;2022-12-24T03:17:42;14.63;;;8.73;;
2111;SDS011;1062;52.538;13.400;2022-12-24T03:20:10;15.77;;;7.90;;
2111;SDS011;1062;52.538;13.400;2022-12-24T03:22:40;12.03;;;9.10;;
2111;SDS011;1062;52.538;13.400;2022-12-24T03:25:06;18.80;;;10.90;;
2111;SDS011;1062;52.538;13.400;2022-12-24T03:27:31;12.17;;;8.30;;
2111;SDS011;1062;52.538;13.400;2022-12-24T03:29:59;14.43;;;9.00;;
2111;SDS011;1062;52.538;13.400;2022-12-24T03:32:29;12.33;;;7.53;;
2111;SDS011;1062;52.538;13.400;2022-12-24T03:34:56;17.97;;;9.17;;
2111;SDS011;1062;52.538;13.400;2022-12-24T03:37:22;11.70;;;7.03;;
2111;SDS011;1062;52.538;13.400;2022-12-24T03:39:48;13.57;;;9.60;;
2111;SDS011;1062;52.538;13.400;2022-12-24T03:42:14;18.17;;;8.90;;
2111;SDS011;1062;52.538;13.400;2022-12-24T03:44:39;18.83;;;9.23;;
2111;SDS011;1062;52.538;13.400;2022-12-24T03:47:05;16.00;;;8.90;;
2111;SDS011;1062;52.538;13.400;2022-12-24T03:49:30;15.33;;;8.43;;
2111;SDS011;1062;52.538;13.400;2022-12-24T03:51:56;21.77;;;9.30;;
2111;SDS011;1062;52.538;13.400;2022-12-24T03:54:21;17.70;;;8.50;;
2111;SDS011;1062;52.538;13.400;2022-12-24T03:56:47;15.43;;;8.73;;
2111;SDS011;1062;52.538;13.400;2022-12-24T03:59:12;14.13;;;8.20;;
2111;SDS011;1062;52.538;13.400;2022-12-24T04:01:38;16.80;;;9.30;;
2111;SDS011;1062;52.538;13.400;2022-12-24T04:04:04;14.40;;;8.63;;
2111;SDS011;1062;52.538;13.400;2022-12-24T04:06:29;16.13;;;7.07;;
2111;SDS011;1062;52.538;13.400;2022-12-24T04:08:55;12.10;;;7.60;;
2111;SDS011;1062;52.538;13.400;2022-12-24T04:11:21;11.37;;;7.20;;
2111;SDS011;1062;52.538;13.400;2022-12-24T04:13:46;18.80;;;9.20;;
2111;SDS011;1062;52.538;13.400;2022-12-24T04:16:13;14.50;;;8.50;;
2111;SDS011;1062;52.538;13.400;2022-12-24T04:18:41;14.47;;;8.27;;
2111;SDS011;1062;52.538;13.400;2022-12-24T04:21:07;12.50;;;7.53;;
2111;SDS011;1062;52.538;13.400;2022-12-24T04:23:33;10.20;;;7.43;;
2111;SDS011;1062;52.538;13.400;2022-12-24T04:26:00;18.27;;;8.83;;
2111;SDS011;1062;52.538;13.400;2022-12-24T04:28:27;14.63;;;8.00;;
2111;SDS011;1062;52.538;13.400;2022-12-24T04:31:00;17.47;;;9.37;;
2111;SDS011;1062;52.538;13.400;2022-12-24T04:33:28;12.33;;;7.80;;
2111;SDS011;1062;52.538;13.400;2022-12-24T04:35:58;12.10;;;8.27;;
2111;SDS011;1062;52.538;13.400;2022-12-24T04:38:24;13.87;;;8.73;;
2111;SDS011;1062;52.538;13.400;2022-12-24T04:41:00;17.33;;;8.13;;
2111;SDS011;1062;52.538;13.400;2022-12-24T04:43:27;10.37;;;7.60;;
2111;SDS011;1062;52.538;13.400;2022-12-24T04:45:54;14.50;;;8.87;;
2111;SDS011;1062;52.538;13.400;2022-12-24T04:48:20;18.70;;;8.53;;
2111;SDS011;1062;52.538;13.400;2022-12-24T04:50:46;15.60;;;8.50;;
2111;SDS011;1062;52.538;13.400;2022-12-24T04:53:11;13.60;;;8.67;;
2111;SDS011;1062;52.538;13.400;2022-12-24T04:55:42;14.00;;;7.17;;
2111;SDS011;1062;52.538;13.400;2022-12-24T04:58:09;13.27;;;7.67;;
2111;SDS011;1062;52.538;13.400;2022-12-24T05:00:35;10.97;;;7.17;;
2111;SDS011;1062;52.538;13.400;2022-12-24T05:03:00;13.03;;;8.73;;
2111;SDS011;1062;52.538;13.400;2022-12-24T05:05:26;13.67;;;8.90;;
2111;SDS011;1062;52.538;13.400;2022-12-24T05:07:51;15.20;;;7.20;;
2111;SDS011;1062;52.538;13.400;2022-12-24T05:10:17;11.30;;;7.07;;
2111;SDS011;1062;52.538;13.400;2022-12-24T05:12:43;12.40;;;8.10;;
2111;SDS011;1062;52.538;13.400;2022-12-24T05:15:08;15.60;;;8.70;;
2111;SDS011;1062;52.538;13.400;2022-12-24T05:17:34;10.07;;;6.53;;
2111;SDS011;1062;52.538;13.400;2022-12-24T05:20:00;13.50;;;8.57;;
2111;SDS011;1062;52.538;13.400;2022-12-24T05:22:25;10.30;;;7.97;;
2111;SDS011;1062;52.538;13.400;2022-12-24T05:25:09;17.63;;;8.87;;
2111;SDS011;1062;52.538;13.400;2022-12-24T05:27:53;12.40;;;8.53;;
2111;SDS011;1062;52.538;13.400;2022-12-24T05:30:19;11.30;;;8.40;;
2111;SDS011;1062;52.538;13.400;2022-12-24T05:32:45;11.63;;;7.43;;
2111;SDS011;1062;52.538;13.400;2022-12-24T05:35:11;14.90;;;9.10;;
2111;SDS011;1062;52.538;13.400;2022-12-24T05:37:37;16.93;;;9.63;;
2111;SDS011;1062;52.538;13.400;2022-12-24T05:40:03;11.70;;;6.67;;
2111;SDS011;1062;52.538;13.400;2022-12-24T05:42:29;12.70;;;7.90;;
2111;SDS011;1062;52.538;13.400;2022-12-24T05:44:55;13.53;;;8.60;;
2111;SDS011;1062;52.538;13.400;2022-12-24T05:47:20;12.20;;;8.63;;
2111;SDS011;1062;52.538;13.400;2022-12-24T05:49:46;15.80;;;9.40;;
2111;SDS011;1062;52.538;13.400;2022-12-24T05:52:11;8.70;;;7.27;;
2111;SDS011;1062;52.538;13.400;2022-12-24T05:54:37;15.17;;;8.80;;
2111;SDS011;1062;52.538;13.400;2022-12-24T05:57:02;14.70;;;9.10;;
2111;SDS011;1062;52.538;13.400;2022-12-24T05:59:28;12.57;;;8.13;;
2111;SDS011;1062;52.538;13.400;2022-12-24T06:01:53;17.00;;;9.97;;
2111;SDS011;1062;52.538;13.400;2022-12-24T06:04:19;18.57;;;9.60;;
2111;SDS011;1062;52.538;13.400;2022-12-24T06:06:45;15.00;;;9.60;;
2111;SDS011;1062;52.538;13.400;2022-12-24T06:09:10;17.20;;;10.23;;
2111;SDS011;1062;52.538;13.400;2022-12-24T06:11:36;14.70;;;9.73;;
2111;SDS011;1062;52.538;13.400;2022-12-24T06:14:02;12.90;;;8.80;;
2111;SDS011;1062;52.538;13.400;2022-12-24T06:16:27;17.30;;;9.70;;
2111;SDS011;1062;52.538;13.400;2022-12-24T06:18:53;15.90;;;9.03;;
2111;SDS011;1062;52.538;13.400;2022-12-24T06:21:19;17.10;;;9.97;;
2111;SDS011;1062;52.538;13.400;2022-12-24T06:23:45;13.87;;;9.30;;
2111;SDS011;1062;52.538;13.400;2022-12-24T06:26:12;15.50;;;8.77;;
2111;SDS011;1062;52.538;13.400;2022-12-24T06:28:40;12.90;;;9.23;;
2111;SDS011;1062;52.538;13.400;2022-12-24T06:31:08;15.57;;;9.40;;
2111;SDS011;1062;52.538;13.400;2022-12-24T06:33:36;12.70;;;8.00;;
2111;SDS011;1062;52.538;13.400;2022-12-24T06:36:04;17.37;;;9.20;;
2111;SDS011;1062;52.538;13.400;2022-12-24T06:38:31;12.50;;;8.80;;
2111;SDS011;1062;52.538;13.400;2022-12-24T06:40:57;16.30;;;8.70;;
2111;SDS011;1062;52.538;13.400;2022-12-24T06:43:22;16.37;;;9.70;;
2111;SDS011;1062;52.538;13.400;2022-12-24T06:45:48;16.63;;;9.07;;
2111;SDS011;1062;52.538;13.400;2022-12-24T06:48:14;15.17;;;8.73;;
2111;SDS011;1062;52.538;13.400;2022-12-24T06:50:40;17.30;;;10.00;;
2111;SDS011;1062;52.538;13.400;2022-12-24T06:53:06;17.83;;;10.33;;
2111;SDS011;1062;52.538;13.400;2022-12-24T06:55:32;12.77;;;9.10;;
2111;SDS011;1062;52.538;13.400;2022-12-24T06:57:58;14.90;;;9.53;;
2111;SDS011;1062;52.538;13.400;2022-12-24T07:00:23;16.17;;;9.47;;
2111;SDS011;1062;52.538;13.400;2022-12-24T07:02:49;13.83;;;8.63;;
2111;SDS011;1062;52.538;13.400;2022-12-24T07:05:15;12.30;;;7.90;;
2111;SDS011;1062;52.538;13.400;2022-12-24T07:07:41;13.33;;;9.10;;
2111;SDS011;1062;52.538;13.400;2022-12-24T07:10:13;14.43;;;8.93;;
2111;SDS011;1062;52.538;13.400;2022-12-24T07:12:39;17.57;;;9.70;;
2111;SDS011;1062;52.538;13.400;2022-12-24T07:15:05;13.50;;;7.97;;
2111;SDS011;1062;52.538;13.400;2022-12-24T07:17:32;14.13;;;9.50;;
2111;SDS011;1062;52.538;13.400;2022-12-24T07:19:57;11.27;;;7.97;;
2111;SDS011;1062;52.538;13.400;2022-12-24T07:22:23;11.40;;;7.37;;
2111;SDS011;1062;52.538;13.400;2022-12-24T07:24:48;15.23;;;9.43;;
2111;SDS011;1062;52.538;13.400;2022-12-24T07:27:14;13.80;;;8.17;;
2111;SDS011;1062;52.538;13.400;2022-12-24T07:29:40;14.57;;;8.60;;
2111;SDS011;1062;52.538;13.400;2022-12-24T07:32:06;15.53;;;9.07;;
2111;SDS011;1062;52.538;13.400;2022-12-24T07:34:31;15.47;;;9.20;;
2111;SDS011;1062;52.538;13.400;2022-12-24T07:36:57;16.83;;;8.40;;
2111;SDS011;1062;52.538;13.400;2022-12-24T07:39:22;15.83;;;9.00;;
2111;SDS011;1062;52.538;13.400;2022-12-24T07:41:48;13.30;;;8.40;;
2111;SDS011;1062;52.538;13.400;2022-12-24T07:44:16;14.90;;;9.60;;
2111;SDS011;1062;52.538;13.400;2022-12-24T07:46:42;15.37;;;9.50;;
2111;SDS011;1062;52.538;13.400;2022-12-24T07:49:08;13.33;;;8.97;;
2111;SDS011;1062;52.538;13.400;2022-12-24T07:51:34;11.33;;;7.60;;
2111;SDS011;1062;52.538;13.400;2022-12-24T07:54:00;17.00;;;9.40;;
2111;SDS011;1062;52.538;13.400;2022-12-24T07:56:25;12.83;;;8.17;;
2111;SDS011;1062;52.538;13.400;2022-12-24T07:58:51;16.63;;;8.30;;
2111;SDS011;1062;52.538;13.400;2022-12-24T08:01:17;13.30;;;7.33;;
2111;SDS011;1062;52.538;13.400;2022-12-24T08:03:43;11.57;;;7.67;;
2111;SDS011;1062;52.538;13.400;2022-12-24T08:06:09;16.30;;;7.20;;
2111;SDS011;1062;52.538;13.400;2022-12-24T08:08:35;15.33;;;8.23;;
2111;SDS011;1062;52.538;13.400;2022-12-24T08:11:02;19.70;;;9.30;;
2111;SDS011;1062;52.538;13.400;2022-12-24T08:13:29;19.10;;;9.03;;
2111;SDS011;1062;52.538;13.400;2022-12-24T08:15:56;14.40;;;9.10;;
2111;SDS011;1062;52.538;13.400;2022-12-24T08:18:21;19.90;;;8.13;;
2111;SDS011;1062;52.538;13.400;2022-12-24T08:20:47;14.60;;;6.90;;
2111;SDS011;1062;52.538;13.400;2022-12-24T08:23:13;20.10;;;9.30;;
2111;SDS011;1062;52.538;13.400;2022-12-24T08:25:42;14.87;;;8.97;;
2111;SDS011;1062;52.538;13.400;2022-12-24T08:28:09;16.40;;;9.03;;
2111;SDS011;1062;52.538;13.400;2022-12-24T08:30:35;18.73;;;11.23;;
2111;SDS011;1062;52.538;13.400;2022-12-24T08:33:00;17.20;;;10.63;;
2111;SDS011;1062;52.538;13.400;2022-12-24T08:35:26;15.67;;;8.67;;
2111;SDS011;1062;52.538;13.400;2022-12-24T08:37:52;20.73;;;9.47;;
2111;SDS011;1062;52.538;13.400;2022-12-24T08:40:18;12.97;;;7.77;;
2111;SDS011;1062;52.538;13.400;2022-12-24T08:42:43;16.50;;;10.30;;
2111;SDS011;1062;52.538;13.400;2022-12-24T08:45:09;15.07;;;9.33;;
2111;SDS011;1062;52.538;13.400;2022-12-24T08:47:36;13.90;;;10.20;;
2111;SDS011;1062;52.538;13.400;2022-12-24T08:50:03;16.87;;;9.17;;
2111;SDS011;1062;52.538;13.400;2022-12-24T08:52:29;13.70;;;8.47;;
2111;SDS011;1062;52.538;13.400;2022-12-24T08:54:55;16.97;;;9.23;;
2111;SDS011;1062;52.538;13.400;2022-12-24T08:57:20;12.87;;;8.57;;
2111;SDS011;1062;52.538;13.400;2022-12-24T08:59:46;14.47;;;8.87;;
2111;SDS011;1062;52.538;13.400;2022-12-24T09:02:12;14.30;;;8.40;;
2111;SDS011;1062;52.538;13.400;2022-12-24T09:04:38;15.20;;;8.20;;
2111;SDS011;1062;52.538;13.400;2022-12-24T09:07:04;15.70;;;8.40;;
2111;SDS011;1062;52.538;13.400;2022-12-24T09:09:30;10.47;;;7.30;;
2111;SDS011;1062;52.538;13.400;2022-12-24T09:11:56;15.40;;;8.90;;
2111;SDS011;1062;52.538;13.400;2022-12-24T09:14:21;15.90;;;8.20;;
2111;SDS011;1062;52.538;13.400;2022-12-24T09:16:47;14.37;;;8.43;;
2111;SDS011;1062;52.538;13.400;2022-12-24T09:19:12;16.57;;;7.20;;
2111;SDS011;1062;52.538;13.400;2022-12-24T09:21:38;15.33;;;8.20;;
2111;SDS011;1062;52.538;13.400;2022-12-24T09:24:04;11.50;;;8.33;;
2111;SDS011;1062;52.538;13.400;2022-12-24T09:26:29;13.00;;;8.57;;
2111;SDS011;1062;52.538;13.400;2022-12-24T09:28:56;12.00;;;8.30;;
2111;SDS011;1062;52.538;13.400;2022-12-24T09:31:23;11.00;;;8.47;;
2111;SDS011;1062;52.538;13.400;2022-12-24T09:33:49;18.43;;;9.70;;
2111;SDS011;1062;52.538;13.400;2022-12-24T09:36:15;13.53;;;7.53;;
2111;SDS011;1062;52.538;13.400;2022-12-24T09:38:42;12.93;;;9.30;;
2111;SDS011;1062;52.538;13.400;2022-12-24T09:44:14;11.60;;;8.53;;
2111;SDS011;1062;52.538;13.400;2022-12-24T09:46:47;16.40;;;10.40;;
2111;SDS011;1062;52.538;13.400;2022-12-24T09:49:17;12.70;;;8.83;;
2111;SDS011;1062;52.538;13.400;2022-12-24T09:51:50;23.60;;;9.20;;
2111;SDS011;1062;52.538;13.400;2022-12-24T09:54:24;16.50;;;8.80;;
2111;SDS011;1062;52.538;13.400;2022-12-24T09:56:57;14.07;;;8.67;;
2111;SDS011;1062;52.538;13.400;2022-12-24T09:59:33;14.90;;;9.70;;
2111;SDS011;1062;52.538;13.400;2022-12-24T10:02:08;15.90;;;9.80;;
2111;SDS011;1062;52.538;13.400;2022-12-24T10:04:36;16.50;;;9.03;;
2111;SDS011;1062;52.538;13.400;2022-12-24T10:07:45;13.80;;;9.43;;
2111;SDS011;1062;52.538;13.400;2022-12-24T10:10:08;19.17;;;9.47;;
2111;SDS011;1062;52.538;13.400;2022-12-24T10:12:53;17.27;;;9.40;;
2111;SDS011;1062;52.538;13.400;2022-12-24T10:15:45;12.47;;;8.90;;
2111;SDS011;1062;52.538;13.400;2022-12-24T10:18:55;14.03;;;10.27;;
2111;SDS011;1062;52.538;13.400;2022-12-24T10:24:24;16.70;;;9.70;;
2111;SDS011;1062;52.538;13.400;2022-12-24T10:27:15;14.80;;;8.70;;
2111;SDS011;1062;52.538;13.400;2022-12-24T10:29:46;13.33;;;8.70;;
2111;SDS011;1062;52.538;13.400;2022-12-24T10:32:17;19.67;;;11.07;;
2111;SDS011;1062;52.538;13.400;2022-12-24T10:34:54;15.23;;;9.80;;
2111;SDS011;1062;52.538;13.400;2022-12-24T10:37:26;17.83;;;10.13;;
2111;SDS011;1062;52.538;13.400;2022-12-24T10:39:53;16.87;;;10.23;;
2111;SDS011;1062;52.538;13.400;2022-12-24T10:42:20;23.40;;;11.80;;
2111;SDS011;1062;52.538;13.400;2022-12-24T10:44:51;20.43;;;12.70;;
2111;SDS011;1062;52.538;13.400;2022-12-24T10:47:25;19.93;;;11.90;;
2111;SDS011;1062;52.538;13.400;2022-12-24T10:52:21;23.50;;;14.50;;
2111;SDS011;1062;52.538;13.400;2022-12-24T10:55:20;28.20;;;14.07;;
2111;SDS011;1062;52.538;13.400;2022-12-24T10:58:01;22.13;;;10.43;;
2111;SDS011;1062;52.538;13.400;2022-12-24T11:00:29;18.03;;;9.73;;
2111;SDS011;1062;52.538;13.400;2022-12-24T11:03:06;23.50;;;11.40;;
2111;SDS011;1062;52.538;13.400;2022-12-24T11:06:06;20.80;;;12.90;;
2111;SDS011;1062;52.538;13.400;2022-12-24T11:08:41;20.77;;;9.87;;
2111;SDS011;1062;52.538;13.400;2022-12-24T11:11:11;16.97;;;10.60;;
2111;SDS011;1062;52.538;13.400;2022-12-24T11:13:43;19.37;;;12.00;;
2111;SDS011;1062;52.538;13.400;2022-12-24T11:18:56;14.87;;;10.50;;
2111;SDS011;1062;52.538;13.400;2022-12-24T11:21:26;15.63;;;9.90;;
2111;SDS011;1062;52.538;13.400;2022-12-24T11:23:55;17.93;;;9.40;;
2111;SDS011;1062;52.538;13.400;2022-12-24T11:26:29;15.93;;;9.87;;
2111;SDS011;1062;52.538;13.400;2022-12-24T11:29:08;16.30;;;10.53;;
2111;SDS011;1062;52.538;13.400;2022-12-24T11:31:40;13.73;;;8.57;;
2111;SDS011;1062;52.538;13.400;2022-12-24T11:34:22;14.90;;;8.60;;
2111;SDS011;1062;52.538;13.400;2022-12-24T11:37:06;14.07;;;7.73;;
2111;SDS011;1062;52.538;13.400;2022-12-24T11:39:37;14.60;;;7.80;;
2111;SDS011;1062;52.538;13.400;2022-12-24T11:42:47;13.00;;;8.57;;
2111;SDS011;1062;52.538;13.400;2022-12-24T11:45:20;17.33;;;9.07;;
2111;SDS011;1062;52.538;13.400;2022-12-24T11:47:48;16.50;;;9.60;;
2111;SDS011;1062;52.538;13.400;2022-12-24T11:55:23;12.93;;;7.47;;
2111;SDS011;1062;52.538;13.400;2022-12-24T12:00:50;15.13;;;8.40;;
2111;SDS011;1062;52.538;13.400;2022-12-24T12:05:58;12.03;;;6.03;;
2111;SDS011;1062;52.538;13.400;2022-12-24T12:08:27;11.43;;;6.77;;
2111;SDS011;1062;52.538;13.400;2022-12-24T12:10:54;11.30;;;7.27;;
2111;SDS011;1062;52.538;13.400;2022-12-24T12:13:25;14.70;;;8.70;;
2111;SDS011;1062;52.538;13.400;2022-12-24T12:16:09;8.77;;;7.13;;
2111;SDS011;1062;52.538;13.400;2022-12-24T12:18:52;9.83;;;6.50;;
2111;SDS011;1062;52.538;13.400;2022-12-24T12:21:29;12.27;;;8.27;;
2111;SDS011;1062;52.538;13.400;2022-12-24T12:24:03;11.13;;;7.53;;
2111;SDS011;1062;52.538;13.400;2022-12-24T12:26:36;11.47;;;7.43;;
2111;SDS011;1062;52.538;13.400;2022-12-24T12:31:54;10.73;;;8.00;;
2111;SDS011;1062;52.538;13.400;2022-12-24T12:37:11;9.20;;;7.07;;
2111;SDS011;1062;52.538;13.400;2022-12-24T12:39:42;8.20;;;6.40;;
2111;SDS011;1062;52.538;13.400;2022-12-24T12:50:21;12.67;;;7.10;;
2111;SDS011;1062;52.538;13.400;2022-12-24T12:58:22;11.60;;;6.97;;
2111;SDS011;1062;52.538;13.400;2022-12-24T13:00:50;8.87;;;6.30;;
2111;SDS011;1062;52.538;13.400;2022-12-24T13:03:24;8.83;;;6.43;;
2111;SDS011;1062;52.538;13.400;2022-12-24T13:22:14;8.80;;;6.67;;
2111;SDS011;1062;52.538;13.400;2022-12-24T13:24:46;10.60;;;7.47;;
2111;SDS011;1062;52.538;13.400;2022-12-24T13:29:50;9.87;;;6.93;;
2111;SDS011;1062;52.538;13.400;2022-12-24T13:34:50;9.40;;;6.40;;
2111;SDS011;1062;52.538;13.400;2022-12-24T13:42:47;7.73;;;5.97;;
2111;SDS011;1062;52.538;13.400;2022-12-24T13:48:02;6.60;;;5.53;;
2111;SDS011;1062;52.538;13.400;2022-12-24T13:50:44;11.67;;;6.40;;
2111;SDS011;1062;52.538;13.400;2022-12-24T13:56:09;14.03;;;6.77;;
2111;SDS011;1062;52.538;13.400;2022-12-24T13:58:49;15.80;;;5.90;;
2111;SDS011;1062;52.538;13.400;2022-12-24T14:01:32;8.43;;;5.87;;
2111;SDS011;1062;52.538;13.400;2022-12-24T14:04:01;9.93;;;5.20;;
2111;SDS011;1062;52.538;13.400;2022-12-24T14:06:30;12.00;;;6.03;;
2111;SDS011;1062;52.538;13.400;2022-12-24T14:09:31;8.60;;;6.30;;
2111;SDS011;1062;52.538;13.400;2022-12-24T14:14:33;11.83;;;5.57;;
2111;SDS011;1062;52.538;13.400;2022-12-24T14:17:07;8.83;;;5.30;;
2111;SDS011;1062;52.538;13.400;2022-12-24T14:19:45;8.00;;;4.60;;
2111;SDS011;1062;52.538;13.400;2022-12-24T14:24:57;9.53;;;3.83;;
2111;SDS011;1062;52.538;13.400;2022-12-24T14:27:31;10.33;;;5.13;;
2111;SDS011;1062;52.538;13.400;2022-12-24T14:30:06;12.20;;;4.90;;
2111;SDS011;1062;52.538;13.400;2022-12-24T14:32:45;13.20;;;7.37;;
2111;SDS011;1062;52.538;13.400;2022-12-24T14:37:38;17.07;;;8.53;;
2111;SDS011;1062;52.538;13.400;2022-12-24T14:40:05;15.77;;;6.17;;
2111;SDS011;1062;52.538;13.400;2022-12-24T14:45:32;14.27;;;6.50;;
2111;SDS011;1062;52.538;13.400;2022-12-24T14:48:27;19.87;;;5.87;;
2111;SDS011;1062;52.538;13.400;2022-12-24T14:56:27;11.33;;;5.63;;
2111;SDS011;1062;52.538;13.400;2022-12-24T14:58:53;9.20;;;4.10;;
2111;SDS011;1062;52.538;13.400;2022-12-24T15:01:20;12.90;;;5.43;;
2111;SDS011;1062;52.538;13.400;2022-12-24T15:06:26;12.33;;;5.87;;
2111;SDS011;1062;52.538;13.400;2022-12-24T15:08:53;17.77;;;5.40;;
2111;SDS011;1062;52.538;13.400;2022-12-24T15:11:20;19.17;;;5.77;;
2111;SDS011;1062;52.538;13.400;2022-12-24T15:13:48;13.90;;;4.50;;
2111;SDS011;1062;52.538;13.400;2022-12-24T15:16:27;13.57;;;4.80;;
2111;SDS011;1062;52.538;13.400;2022-12-24T15:19:02;8.90;;;5.00;;
2111;SDS011;1062;52.538;13.400;2022-12-24T15:21:31;11.70;;;4.73;;
2111;SDS011;1062;52.538;13.400;2022-12-24T15:27:17;10.20;;;5.60;;
2111;SDS011;1062;52.538;13.400;2022-12-24T15:29:46;12.40;;;5.47;;
2111;SDS011;1062;52.538;13.400;2022-12-24T15:32:13;22.10;;;6.17;;
2111;SDS011;1062;52.538;13.400;2022-12-24T15:34:45;8.07;;;5.27;;
2111;SDS011;1062;52.538;13.400;2022-12-24T15:39:57;26.33;;;9.17;;
2111;SDS011;1062;52.538;13.400;2022-12-24T15:42:30;18.43;;;7.90;;
2111;SDS011;1062;52.538;13.400;2022-12-24T15:47:37;8.43;;;5.27;;
2111;SDS011;1062;52.538;13.400;2022-12-24T15:52:46;11.00;;;4.77;;
2111;SDS011;1062;52.538;13.400;2022-12-24T15:55:30;11.27;;;6.37;;
2111;SDS011;1062;52.538;13.400;2022-12-24T15:58:00;21.53;;;6.27;;
2111;SDS011;1062;52.538;13.400;2022-12-24T16:00:29;12.73;;;5.27;;
2111;SDS011;1062;52.538;13.400;2022-12-24T16:03:10;20.43;;;6.03;;
2111;SDS011;1062;52.538;13.400;2022-12-24T16:05:44;14.90;;;5.83;;
2111;SDS011;1062;52.538;13.400;2022-12-24T16:10:40;20.67;;;5.97;;
2111;SDS011;1062;52.538;13.400;2022-12-24T16:13:10;16.30;;;6.50;;
2111;SDS011;1062;52.538;13.400;2022-12-24T16:15:41;13.40;;;4.83;;
2111;SDS011;1062;52.538;13.400;2022-12-24T16:18:27;16.60;;;6.23;;
2111;SDS011;1062;52.538;13.400;2022-12-24T16:21:00;17.70;;;6.90;;
2111;SDS011;1062;52.538;13.400;2022-12-24T16:23:37;23.47;;;6.50;;
2111;SDS011;1062;52.538;13.400;2022-12-24T16:26:10;9.50;;;5.60;;
2111;SDS011;1062;52.538;13.400;2022-12-24T16:28:35;11.03;;;4.70;;
2111;SDS011;1062;52.538;13.400;2022-12-24T16:31:01;14.17;;;6.70;;
2111;SDS011;1062;52.538;13.400;2022-12-24T16:33:27;21.40;;;6.40;;
2111;SDS011;1062;52.538;13.400;2022-12-24T16:35:53;13.37;;;7.30;;
2111;SDS011;1062;52.538;13.400;2022-12-24T16:38:19;24.53;;;8.93;;
2111;SDS011;1062;52.538;13.400;2022-12-24T16:40:45;15.63;;;7.43;;
2111;SDS011;1062;52.538;13.400;2022-12-24T16:43:11;20.00;;;8.50;;
2111;SDS011;1062;52.538;13.400;2022-12-24T16:45:59;16.73;;;8.67;;
2111;SDS011;1062;52.538;13.400;2022-12-24T16:48:27;18.27;;;8.10;;
2111;SDS011;1062;52.538;13.400;2022-12-24T16:50:54;13.57;;;6.17;;
2111;SDS011;1062;52.538;13.400;2022-12-24T16:53:21;20.03;;;7.73;;
2111;SDS011;1062;52.538;13.400;2022-12-24T16:55:47;18.80;;;8.57;;
2111;SDS011;1062;52.538;13.400;2022-12-24T16:58:16;16.50;;;8.80;;
2111;SDS011;1062;52.538;13.400;2022-12-24T17:00:42;14.27;;;6.77;;
2111;SDS011;1062;52.538;13.400;2022-12-24T17:03:09;19.20;;;7.43;;
2111;SDS011;1062;52.538;13.400;2022-12-24T17:05:38;19.83;;;8.07;;
2111;SDS011;1062;52.538;13.400;2022-12-24T17:08:05;22.20;;;7.73;;
2111;SDS011;1062;52.538;13.400;2022-12-24T17:10:31;14.47;;;6.40;;
2111;SDS011;1062;52.538;13.400;2022-12-24T17:12:57;15.13;;;7.57;;